Погода Зиборовкана неделю

Белгородская область, Россия

13 - 19 июля
  • 13июля
    Сегодня
    +20°
    +32°
    Ясно и безоблачно
    ВремяПогодаТемператураВлажностьДавлениеВетер, м/сВероятность осадков
    00:00Ясно и безоблачно+21°C59 %750 мм2.4 м/с2 %
    03:00Ясно и безоблачно+19°C73 %751 мм2.3 м/с2 %
    06:00Ясно и безоблачно+19°C66 %750 мм1.9 м/с2 %
    09:00Ясно и безоблачно+26°C48 %751 мм2.0 м/с2 %
    12:00Ясно и безоблачно+29°C39 %750 мм2.0 м/с2 %
    15:00Ясно и безоблачно+31°C38 %750 мм2.6 м/с2 %
    18:00Ясно и безоблачно+31°C39 %749 мм2.3 м/с2 %
    21:00Ясно и безоблачно+27°C46 %749 мм2.0 м/с2 %
  • 14июля
    Воскресенье
    +22°
    +35°
    Практически безоблачно
    ВремяПогодаТемператураВлажностьДавлениеВетер, м/сВероятность осадков
    00:00Ясно и безоблачно+23°C68 %749 мм1.8 м/с2 %
    03:00Ясно и безоблачно+22°C69 %749 мм1.9 м/с2 %
    06:00Ясно и безоблачно+22°C69 %749 мм1.4 м/с2 %
    09:00Ясно и безоблачно+29°C47 %750 мм1.9 м/с2 %
    12:00Ясно и безоблачно+32°C42 %749 мм2.5 м/с3 %
    15:00Практически безоблачно+34°C41 %749 мм3.4 м/с9 %
    18:00Ясно и безоблачно+33°C45 %749 мм3.2 м/с13 %
    21:00Ясно и безоблачно+29°C61 %749 мм2.1 м/с9 %
  • 15июля
    Понедельник
    +22°
    +36°
    Практически безоблачно
    ВремяПогодаТемператураВлажностьДавлениеВетер, м/сВероятность осадков
    00:00Ясно и безоблачно+26°C80 %749 мм0.9 м/с2 %
    03:00Ясно и безоблачно+24°C90 %749 мм1.7 м/с2 %
    06:00Ясно и безоблачно+24°C83 %749 мм1.7 м/с2 %
    09:00Ясно и безоблачно+30°C55 %749 мм2.3 м/с2 %
    12:00Практически безоблачно+34°C43 %749 мм4.2 м/с2 %
    15:00Практически безоблачно+35°C40 %748 мм5.2 м/с5 %
    18:00Небольшая облачность+33°C42 %748 мм4.6 м/с15 %
    21:00Облачно с прояснениями+29°C53 %749 мм3.1 м/с2 %
  • 16июля
    Вторник
    +22°
    +35°
    Практически безоблачно
    ВремяПогодаТемператураВлажностьДавлениеВетер, м/сВероятность осадков
    00:00Небольшая облачность+26°C66 %749 мм2.1 м/с2 %
    03:00Ясно и безоблачно+24°C72 %749 мм2.2 м/с2 %
    06:00Ясно и безоблачно+23°C74 %749 мм2.0 м/с2 %
    09:00Ясно и безоблачно+30°C55 %750 мм2.3 м/с2 %
    12:00Ясно и безоблачно+33°C40 %749 мм4.1 м/с2 %
    15:00Практически безоблачно+35°C36 %749 мм4.0 м/с7 %
    18:00Небольшая облачность+33°C42 %749 мм3.4 м/с11 %
    21:00Практически безоблачно+27°C56 %749 мм2.9 м/с2 %
  • 17июля
    Среда
    +21°
    +35°
    Ясно и безоблачно
    ВремяПогодаТемператураВлажностьДавлениеВетер, м/сВероятность осадков
    00:00Ясно и безоблачно+25°C64 %749 мм1.7 м/с2 %
    03:00Ясно и безоблачно+23°C71 %749 мм2.3 м/с2 %
    06:00Ясно и безоблачно+23°C72 %750 мм1.9 м/с2 %
    09:00Ясно и безоблачно+30°C54 %750 мм2.1 м/с2 %
    12:00Ясно и безоблачно+33°C38 %750 мм2.9 м/с2 %
    15:00Ясно и безоблачно+35°C32 %749 мм3.8 м/с2 %
    18:00Ясно и безоблачно+34°C32 %748 мм3.9 м/с7 %
    21:00Ясно и безоблачно+29°C51 %749 мм2.6 м/с4 %
Мы используем cookies
Соглашаюсь